Time;durP1;ratioP1;P1;durP2;ratioP2;P2;SDS_P1;SDS_P2;PMS_P1;PMS_P2;Temp;Humidity;BMP_temperature;BMP_pressure;BME280_temperature;BME280_humidity;BME280_pressure;Samples;Min_cycle;Max_cycle;Signal;HPM_P1;HPM_P2
2022/01/01 00:04:47;;;;;;;50.70;45.53;;;10.90;99.90;;;;;;10480752;28;20200;-84
2022/01/01 00:09:49;;;;;;;52.43;47.10;;;10.90;99.90;;;;;;10469128;28;20242;-83
2022/01/01 00:14:53;;;;;;;49.00;44.07;;;10.90;99.90;;;;;;10490046;28;20767;-83
2022/01/01 00:19:55;;;;;;;53.10;45.20;;;10.80;99.90;;;;;;10447177;28;20224;-83
2022/01/01 00:24:57;;;;;;;48.43;43.07;;;10.80;99.90;;;;;;10412265;28;20250;-83
2022/01/01 00:30:01;;;;;;;48.60;43.90;;;10.90;99.90;;;;;;10448808;28;20223;-83
2022/01/01 00:35:03;;;;;;;49.33;44.03;;;10.90;99.90;;;;;;10447055;28;20228;-82
2022/01/01 00:40:06;;;;;;;39.17;35.00;;;11.00;99.90;;;;;;10490840;28;20243;-83
2022/01/01 00:45:11;;;;;;;36.93;32.93;;;11.10;99.90;;;;;;10466159;28;20193;-83
2022/01/01 00:50:13;;;;;;;33.00;29.67;;;11.20;99.90;;;;;;10455192;22;20293;-80
2022/01/01 00:55:15;;;;;;;34.93;31.43;;;11.30;99.90;;;;;;10374954;28;20930;-80
2022/01/01 01:00:18;;;;;;;37.10;33.20;;;11.40;99.90;;;;;;10387941;28;20694;-80
2022/01/01 01:05:21;;;;;;;30.90;27.87;;;11.40;99.90;;;;;;10365906;28;20199;-80
2022/01/01 01:10:23;;;;;;;33.37;29.87;;;11.30;99.90;;;;;;10382909;28;20230;-80
2022/01/01 01:15:26;;;;;;;33.10;29.60;;;11.20;99.90;;;;;;10383108;28;20686;-79
2022/01/01 01:20:29;;;;;;;32.57;29.10;;;11.20;99.90;;;;;;10378371;28;20305;-79
2022/01/01 01:25:38;;;;;;;31.70;27.13;;;11.20;99.90;;;;;;10349028;28;20211;-80
2022/01/01 01:30:42;;;;;;;42.60;38.20;;;11.20;99.90;;;;;;10347988;28;20215;-79
2022/01/01 01:35:45;;;;;;;27.97;25.13;;;11.30;99.90;;;;;;10361595;28;20241;-79
2022/01/01 01:40:47;;;;;;;29.67;26.70;;;11.30;99.90;;;;;;10379583;28;20230;-79
2022/01/01 01:45:51;;;;;;;24.07;21.67;;;11.30;99.90;;;;;;10378957;28;20202;-80
2022/01/01 01:50:53;;;;;;;24.30;21.70;;;11.30;99.90;;;;;;10360427;28;20235;-80
2022/01/01 01:55:55;;;;;;;23.10;20.90;;;11.30;99.90;;;;;;10379104;28;20277;-79
2022/01/01 02:01:20;;;;;;;21.60;19.30;;;11.40;99.90;;;;;;10367388;28;20235;-79
2022/01/01 02:06:23;;;;;;;20.53;18.57;;;11.50;99.90;;;;;;10387633;28;20274;-79
2022/01/01 02:11:25;;;;;;;21.60;19.40;;;11.50;99.90;;;;;;10378811;28;20250;-80
2022/01/01 02:16:39;;;;;;;21.40;19.20;;;11.50;99.90;;;;;;10365053;28;20198;-79
2022/01/01 02:21:43;;;;;;;22.00;19.20;;;11.50;99.90;;;;;;10375957;28;20241;-80
2022/01/01 02:26:48;;;;;;;21.17;19.07;;;11.40;99.90;;;;;;10373305;28;20293;-79
2022/01/01 02:31:50;;;;;;;21.23;19.13;;;11.40;99.90;;;;;;10375649;28;20709;-80
2022/01/01 02:36:54;;;;;;;21.43;18.37;;;11.30;99.90;;;;;;10375951;28;20210;-80
2022/01/01 02:41:57;;;;;;;18.37;16.47;;;11.30;99.90;;;;;;10375744;28;20249;-79
2022/01/01 02:46:59;;;;;;;16.47;14.90;;;11.40;99.90;;;;;;10365119;28;20205;-80
2022/01/01 02:52:02;;;;;;;16.97;15.33;;;11.30;99.90;;;;;;10377103;28;20226;-79
2022/01/01 02:57:06;;;;;;;17.33;14.70;;;11.30;99.90;;;;;;10371468;28;20213;-79
2022/01/01 03:02:08;;;;;;;17.20;13.57;;;11.30;99.90;;;;;;10371290;28;20219;-80
2022/01/01 03:07:11;;;;;;;14.23;12.73;;;11.30;99.90;;;;;;10378673;28;20670;-80
2022/01/01 03:12:16;;;;;;;13.67;10.27;;;11.30;99.90;;;;;;10377770;28;20226;-79
2022/01/01 03:17:18;;;;;;;11.60;10.40;;;11.20;99.90;;;;;;10378252;28;20202;-80
2022/01/01 03:22:22;;;;;;;12.10;10.63;;;11.30;99.90;;;;;;10377686;28;20214;-80
2022/01/01 03:27:24;;;;;;;12.20;10.97;;;11.30;99.90;;;;;;10366192;28;20281;-80
2022/01/01 03:32:26;;;;;;;11.40;10.30;;;11.30;99.90;;;;;;10377756;28;20226;-80
2022/01/01 03:37:29;;;;;;;10.93;9.83;;;11.30;99.90;;;;;;10374826;28;20281;-80
2022/01/01 03:42:31;;;;;;;14.60;9.80;;;11.40;99.90;;;;;;10379308;28;20214;-80
2022/01/01 03:47:33;;;;;;;10.10;9.20;;;11.50;99.90;;;;;;10376722;28;20195;-80
2022/01/01 03:52:42;;;;;;;12.20;11.10;;;11.50;99.90;;;;;;10354458;28;20262;-80
2022/01/01 03:57:44;;;;;;;12.40;10.40;;;11.60;99.90;;;;;;10379946;28;20561;-80
2022/01/01 04:02:46;;;;;;;10.63;9.63;;;11.60;99.90;;;;;;10380596;28;20222;-81
2022/01/01 04:07:49;;;;;;;10.23;9.23;;;11.60;99.90;;;;;;10380115;28;20222;-80
2022/01/01 04:12:51;;;;;;;10.87;9.80;;;11.60;99.90;;;;;;10381070;28;20235;-80
2022/01/01 04:17:57;;;;;;;9.63;8.80;;;11.70;99.90;;;;;;10378620;28;20230;-80
2022/01/01 04:23:01;;;;;;;10.90;9.53;;;11.70;99.90;;;;;;10378190;28;20218;-81
2022/01/01 04:28:04;;;;;;;10.40;9.50;;;11.70;99.90;;;;;;10366741;28;20206;-81
2022/01/01 04:33:06;;;;;;;10.40;9.53;;;11.70;99.90;;;;;;10386158;28;20779;-81
2022/01/01 04:38:21;;;;;;;12.00;10.73;;;11.70;99.90;;;;;;10387284;28;20206;-81
2022/01/01 04:43:23;;;;;;;11.17;9.80;;;11.70;99.90;;;;;;10387691;28;20222;-81
2022/01/01 04:48:26;;;;;;;10.33;9.37;;;11.70;99.90;;;;;;10388842;28;20662;-80
2022/01/01 04:53:29;;;;;;;10.43;9.33;;;11.70;99.90;;;;;;10381711;28;20335;-80
2022/01/01 04:58:31;;;;;;;10.57;9.57;;;11.60;99.90;;;;;;10386460;28;20645;-80
2022/01/01 05:03:33;;;;;;;8.90;8.00;;;11.60;99.90;;;;;;10357897;28;20214;-80
2022/01/01 05:08:37;;;;;;;9.10;8.30;;;11.50;99.90;;;;;;10380055;28;20205;-79
2022/01/01 05:13:39;;;;;;;8.30;7.50;;;11.30;99.90;;;;;;10378482;28;20217;-80
2022/01/01 05:18:41;;;;;;;8.13;7.43;;;11.20;99.90;;;;;;10378081;28;20333;-80
2022/01/01 05:23:45;;;;;;;10.53;8.27;;;11.10;99.90;;;;;;10379754;28;20224;-80
2022/01/01 05:28:49;;;;;;;10.97;9.73;;;10.90;99.90;;;;;;10379427;28;20202;-79
2022/01/01 05:33:51;;;;;;;11.07;9.90;;;10.80;99.90;;;;;;10379242;28;20690;-79
2022/01/01 05:38:54;;;;;;;9.83;8.83;;;10.70;99.90;;;;;;10372158;28;20203;-79
2022/01/01 05:43:56;;;;;;;10.40;8.30;;;10.70;99.90;;;;;;10379215;28;20253;-79
2022/01/01 05:48:58;;;;;;;8.40;7.60;;;10.60;99.90;;;;;;10360996;28;20214;-79
2022/01/01 05:54:02;;;;;;;8.57;7.77;;;10.50;99.90;;;;;;10379020;28;20225;-79
2022/01/01 05:59:04;;;;;;;8.07;7.27;;;10.40;99.90;;;;;;10373365;28;20666;-80
2022/01/01 06:04:06;;;;;;;8.17;7.20;;;10.40;99.90;;;;;;10373915;28;20222;-80
2022/01/01 06:09:10;;;;;;;9.83;7.90;;;10.30;99.90;;;;;;10378573;28;20206;-79
2022/01/01 06:14:12;;;;;;;8.27;6.67;;;10.30;99.90;;;;;;10359419;28;20230;-80
2022/01/01 06:19:14;;;;;;;7.33;6.63;;;10.30;99.90;;;;;;10379859;28;20202;-80
2022/01/01 06:24:18;;;;;;;7.50;6.80;;;10.30;99.90;;;;;;10361879;28;20218;-79
2022/01/01 06:29:20;;;;;;;7.47;6.77;;;10.30;99.90;;;;;;10377066;28;20222;-79
2022/01/01 06:34:22;;;;;;;7.13;6.43;;;10.40;99.90;;;;;;10370951;28;20233;-80
2022/01/01 06:39:25;;;;;;;7.07;6.47;;;10.50;99.90;;;;;;10378159;28;20206;-79
2022/01/01 06:44:27;;;;;;;6.93;6.23;;;10.50;99.90;;;;;;10354527;28;20718;-80
2022/01/01 06:49:29;;;;;;;6.70;6.10;;;10.60;99.90;;;;;;10378775;28;20202;-79
2022/01/01 06:54:33;;;;;;;6.27;5.60;;;10.70;99.90;;;;;;10369426;28;20231;-78
2022/01/01 06:59:35;;;;;;;6.40;5.70;;;10.80;99.90;;;;;;10344704;28;20572;-80
2022/01/01 07:04:37;;;;;;;6.53;5.77;;;10.90;99.90;;;;;;10370356;28;20233;-80
2022/01/01 07:09:40;;;;;;;5.90;5.40;;;11.00;99.90;;;;;;10374998;28;20213;-79
2022/01/01 07:14:42;;;;;;;5.77;5.27;;;11.10;99.90;;;;;;10366352;28;20707;-80
2022/01/01 07:19:45;;;;;;;6.40;5.70;;;11.20;99.90;;;;;;10381747;28;20205;-78
2022/01/01 07:24:50;;;;;;;6.23;5.60;;;11.30;99.90;;;;;;10345776;28;20206;-78
2022/01/01 07:29:52;;;;;;;5.87;5.37;;;11.40;99.90;;;;;;10380494;28;20205;-78
2022/01/01 07:34:55;;;;;;;6.33;5.80;;;11.40;99.90;;;;;;10368263;28;20245;-78
2022/01/01 07:39:58;;;;;;;5.63;5.23;;;11.50;99.90;;;;;;10386973;28;20671;-78
2022/01/01 07:45:01;;;;;;;5.77;5.27;;;11.60;99.90;;;;;;10386296;28;20198;-77
2022/01/01 07:50:04;;;;;;;5.90;4.90;;;11.60;99.90;;;;;;10386941;28;20198;-78
2022/01/01 07:55:09;;;;;;;5.23;4.83;;;11.60;99.90;;;;;;10377740;28;20714;-78
2022/01/01 08:00:12;;;;;;;5.27;4.80;;;11.60;99.90;;;;;;10353899;28;20253;-78
2022/01/01 08:05:16;;;;;;;5.97;5.47;;;11.60;99.90;;;;;;10373045;28;20195;-78
2022/01/01 08:10:23;;;;;;;5.40;4.90;;;11.60;99.90;;;;;;10378674;28;20341;-78
2022/01/01 08:15:25;;;;;;;5.50;5.10;;;11.50;99.90;;;;;;10386124;28;20293;-78
2022/01/01 08:20:27;;;;;;;5.33;4.83;;;11.40;99.90;;;;;;10370748;28;20288;-78
2022/01/01 08:25:31;;;;;;;5.50;5.00;;;11.30;99.90;;;;;;10376137;28;20191;-79
2022/01/01 08:30:33;;;;;;;4.50;4.20;;;11.30;99.90;;;;;;10371640;28;20250;-78
2022/01/01 08:35:36;;;;;;;5.57;5.00;;;11.20;99.90;;;;;;10378880;28;20265;-78
2022/01/01 08:40:39;;;;;;;5.40;4.50;;;11.20;99.90;;;;;;10366194;28;20306;-78
2022/01/01 08:45:42;;;;;;;5.30;4.90;;;11.10;99.90;;;;;;10387148;28;20207;-78
2022/01/01 08:50:44;;;;;;;5.43;4.93;;;11.20;99.90;;;;;;10367998;28;20238;-78
2022/01/01 08:55:48;;;;;;;5.30;4.80;;;11.20;99.90;;;;;;10385648;28;20219;-78
2022/01/01 09:00:50;;;;;;;5.03;4.33;;;11.20;99.90;;;;;;10382569;28;20215;-78
2022/01/01 09:05:52;;;;;;;4.40;4.00;;;11.30;99.90;;;;;;10390348;28;20198;-77
2022/01/01 09:10:56;;;;;;;4.50;3.90;;;11.40;99.90;;;;;;10378728;28;20218;-78
2022/01/01 09:15:58;;;;;;;4.63;4.30;;;11.50;99.90;;;;;;10380608;28;20223;-78
2022/01/01 09:21:00;;;;;;;4.70;4.30;;;11.60;99.90;;;;;;10381497;28;20225;-79
2022/01/01 09:26:04;;;;;;;4.83;4.43;;;11.70;99.90;;;;;;10379620;28;20204;-79
2022/01/01 09:31:06;;;;;;;4.73;4.40;;;11.70;99.90;;;;;;10363899;28;20733;-78
2022/01/01 09:36:10;;;;;;;5.10;4.60;;;11.70;99.90;;;;;;10375405;28;20602;-80
2022/01/01 09:41:15;;;;;;;4.80;4.40;;;11.70;99.90;;;;;;10378224;28;20626;-78
2022/01/01 09:46:17;;;;;;;5.10;4.60;;;11.70;99.90;;;;;;10367751;28;20234;-79
2022/01/01 09:51:20;;;;;;;4.83;4.50;;;11.70;99.90;;;;;;10372324;28;20601;-79
2022/01/01 09:56:24;;;;;;;4.73;4.33;;;11.70;99.90;;;;;;10372485;28;20218;-79
2022/01/01 10:01:26;;;;;;;5.60;5.20;;;11.70;99.90;;;;;;10378640;28;20685;-78
2022/01/01 10:06:30;;;;;;;5.43;4.90;;;11.80;99.90;;;;;;10373791;28;20200;-77
2022/01/01 10:11:34;;;;;;;4.70;4.30;;;11.80;99.90;;;;;;10370941;28;20222;-79
2022/01/01 10:16:42;;;;;;;4.00;3.70;;;11.80;99.90;;;;;;10376641;28;20222;-79
2022/01/01 10:21:50;;;;;;;4.30;3.90;;;11.80;99.90;;;;;;10360643;28;20523;-78
2022/01/01 10:32:15;;;;;;;4.20;3.90;;;11.90;99.90;;;;;;10349997;28;20230;-79
2022/01/01 10:37:27;;;;;;;5.57;4.03;;;12.00;99.90;;;;;;10358452;28;20569;-79
2022/01/01 10:42:30;;;;;;;4.20;3.63;;;12.00;99.90;;;;;;10349423;28;20215;-79
2022/01/01 10:47:35;;;;;;;3.87;3.57;;;12.10;99.90;;;;;;10342919;28;20221;-79
2022/01/01 10:52:37;;;;;;;3.50;3.27;;;12.10;99.90;;;;;;10357874;28;20236;-79
2022/01/01 10:57:42;;;;;;;6.37;5.73;;;12.10;99.90;;;;;;10361780;28;20194;-80
2022/01/01 11:02:51;;;;;;;5.20;4.80;;;12.20;99.90;;;;;;10365435;28;20237;-79
2022/01/01 11:07:56;;;;;;;6.20;5.60;;;12.20;99.90;;;;;;10374840;28;20210;-78
2022/01/01 11:13:01;;;;;;;6.83;6.23;;;12.30;99.90;;;;;;10354506;28;20305;-80
2022/01/01 11:18:04;;;;;;;6.20;5.70;;;12.30;99.90;;;;;;10350661;28;20663;-80
2022/01/01 11:23:10;;;;;;;6.50;6.00;;;12.40;99.90;;;;;;10374819;28;20260;-80
2022/01/01 11:28:15;;;;;;;7.90;6.50;;;12.50;99.90;;;;;;10362179;28;20203;-82
2022/01/01 11:33:20;;;;;;;7.60;6.90;;;12.70;99.90;;;;;;10369639;28;20261;-80
2022/01/01 11:38:22;;;;;;;6.97;6.37;;;12.90;99.90;;;;;;10367165;28;20314;-79
2022/01/01 11:43:37;;;;;;;8.43;7.47;;;13.10;99.90;;;;;;10367020;28;20218;-79
2022/01/01 11:48:51;;;;;;;8.97;7.80;;;13.20;99.90;;;;;;10364701;28;20209;-80
2022/01/01 11:54:19;;;;;;;7.53;6.83;;;13.20;99.90;;;;;;10368104;28;20258;-79
2022/01/01 11:59:24;;;;;;;7.03;6.43;;;13.30;99.90;;;;;;10341405;28;20234;-80
2022/01/01 12:04:40;;;;;;;6.03;5.30;;;13.30;99.90;;;;;;10342091;28;20718;-80
2022/01/01 12:09:52;;;;;;;6.50;5.83;;;13.30;99.90;;;;;;10372547;28;20205;-79
2022/01/01 12:14:56;;;;;;;7.73;7.03;;;13.40;99.90;;;;;;10360001;28;20614;-80
2022/01/01 12:19:59;;;;;;;7.27;6.67;;;13.40;99.90;;;;;;10349858;28;20222;-80
2022/01/01 12:25:03;;;;;;;7.13;6.60;;;13.40;99.90;;;;;;10347598;28;20197;-80
2022/01/01 12:30:08;;;;;;;7.27;6.57;;;13.40;99.90;;;;;;10374974;28;20198;-82
2022/01/01 12:35:17;;;;;;;10.30;9.30;;;13.40;99.90;;;;;;10342024;28;20215;-79
2022/01/01 12:40:25;;;;;;;13.33;11.93;;;13.30;99.90;;;;;;10344999;28;20238;-79
2022/01/01 12:45:29;;;;;;;12.43;11.17;;;13.30;99.90;;;;;;10345455;28;20268;-80
2022/01/01 12:50:34;;;;;;;9.70;8.80;;;13.30;99.90;;;;;;10351809;28;20238;-81
2022/01/01 12:55:36;;;;;;;8.57;7.87;;;13.20;99.90;;;;;;10357134;28;20254;-80
2022/01/01 13:00:41;;;;;;;7.77;7.07;;;13.20;99.90;;;;;;10353270;28;20222;-79
2022/01/01 13:05:44;;;;;;;7.50;6.80;;;13.20;99.90;;;;;;10356972;28;20225;-80
2022/01/01 13:10:48;;;;;;;8.40;7.60;;;13.20;99.90;;;;;;10355351;28;20226;-79
2022/01/01 13:15:54;;;;;;;6.37;5.87;;;13.20;99.90;;;;;;10370389;28;20223;-80
2022/01/01 13:20:56;;;;;;;6.23;5.73;;;13.20;99.90;;;;;;10362801;28;20233;-79
2022/01/01 13:25:58;;;;;;;6.30;5.73;;;13.20;99.90;;;;;;10388439;28;20210;-79
2022/01/01 13:31:04;;;;;;;6.37;5.87;;;13.30;99.90;;;;;;10397232;28;20514;-79
2022/01/01 13:36:06;;;;;;;6.70;6.00;;;13.30;99.90;;;;;;10386366;28;20610;-78
2022/01/01 13:41:08;;;;;;;7.03;6.43;;;13.40;99.90;;;;;;10365131;28;20230;-79
2022/01/01 13:46:13;;;;;;;6.10;5.60;;;13.40;99.90;;;;;;10372592;28;20571;-78
2022/01/01 13:51:20;;;;;;;6.87;6.17;;;13.40;99.90;;;;;;10363100;28;20231;-78
2022/01/01 13:56:25;;;;;;;9.70;6.70;;;13.40;99.90;;;;;;10379891;28;20253;-79
2022/01/01 14:01:28;;;;;;;7.30;6.60;;;13.30;99.90;;;;;;10376496;28;20653;-80
2022/01/01 14:06:31;;;;;;;9.43;8.47;;;13.30;99.90;;;;;;10382974;28;20194;-78
2022/01/01 14:11:35;;;;;;;9.10;7.07;;;13.30;99.90;;;;;;10381564;28;20298;-81
2022/01/01 14:16:47;;;;;;;7.87;7.07;;;13.30;99.90;;;;;;10368439;28;20218;-80
2022/01/01 14:21:50;;;;;;;8.50;7.70;;;13.20;99.90;;;;;;10365911;28;20230;-80
2022/01/01 14:26:54;;;;;;;7.70;7.00;;;13.20;99.90;;;;;;10380128;28;20190;-82
2022/01/01 14:31:58;;;;;;;7.93;7.20;;;13.10;99.90;;;;;;10371572;28;20218;-81
2022/01/01 14:37:00;;;;;;;8.33;7.57;;;13.00;99.90;;;;;;10370618;28;20529;-81
2022/01/01 14:42:02;;;;;;;7.43;6.77;;;13.00;99.90;;;;;;10352243;28;20252;-82
2022/01/01 14:47:19;;;;;;;8.00;6.90;;;12.90;99.90;;;;;;10356800;28;20210;-79
2022/01/01 14:52:31;;;;;;;8.37;7.10;;;12.80;99.90;;;;;;10372492;28;20234;-83
2022/01/01 14:57:39;;;;;;;7.87;7.07;;;12.60;99.90;;;;;;10380665;28;20226;-82
2022/01/01 15:02:44;;;;;;;6.73;6.03;;;12.50;99.90;;;;;;10375780;28;20233;-83
2022/01/01 15:07:48;;;;;;;7.00;5.60;;;12.30;99.90;;;;;;10378634;28;20730;-81
2022/01/01 15:12:51;;;;;;;5.63;5.13;;;12.20;99.90;;;;;;10379117;28;20223;-83
2022/01/01 15:17:57;;;;;;;6.03;5.43;;;12.10;99.90;;;;;;10377969;28;20276;-82
2022/01/01 15:23:05;;;;;;;6.87;6.27;;;12.00;99.90;;;;;;10358507;28;20233;-80
2022/01/01 15:28:08;;;;;;;7.80;6.40;;;11.90;99.90;;;;;;10375414;28;20670;-81
2022/01/01 15:33:23;;;;;;;8.73;6.70;;;11.80;99.90;;;;;;10373485;28;20591;-82
2022/01/01 15:38:29;;;;;;;8.27;6.53;;;11.80;99.90;;;;;;10367881;28;20663;-81
2022/01/01 15:43:33;;;;;;;7.77;6.33;;;11.70;99.90;;;;;;10356776;28;20317;-83
2022/01/01 15:48:37;;;;;;;7.03;6.30;;;11.60;99.90;;;;;;10390267;28;20203;-83
2022/01/01 15:53:42;;;;;;;8.17;6.67;;;11.60;99.90;;;;;;10374520;28;20226;-81
2022/01/01 15:58:52;;;;;;;7.40;6.70;;;11.40;99.90;;;;;;10357144;28;20209;-81
2022/01/01 16:04:02;;;;;;;7.80;6.57;;;11.30;99.90;;;;;;10370119;28;20228;-82
2022/01/01 16:09:06;;;;;;;6.40;5.37;;;11.20;99.90;;;;;;10359326;28;20210;-82
2022/01/01 16:14:13;;;;;;;5.90;5.40;;;11.10;99.90;;;;;;10373358;28;20256;-82
2022/01/01 16:19:18;;;;;;;5.33;4.77;;;11.10;99.90;;;;;;10366843;28;20277;-82
2022/01/01 16:24:22;;;;;;;5.73;5.17;;;10.90;99.90;;;;;;10376145;28;20467;-82
2022/01/01 16:29:24;;;;;;;6.83;6.20;;;10.90;99.90;;;;;;10384316;28;20203;-82
2022/01/01 16:34:29;;;;;;;8.10;6.60;;;10.80;99.90;;;;;;10384631;28;20218;-81
2022/01/01 16:39:31;;;;;;;6.50;5.63;;;10.70;99.90;;;;;;10379508;28;20198;-80
2022/01/01 16:44:40;;;;;;;6.10;5.50;;;10.60;99.90;;;;;;10383902;28;20254;-81
2022/01/01 16:49:48;;;;;;;8.00;7.20;;;10.50;99.90;;;;;;10376923;28;20289;-80
2022/01/01 16:54:52;;;;;;;7.87;7.07;;;10.50;99.90;;;;;;10396183;28;20226;-82
2022/01/01 17:00:00;;;;;;;8.10;7.30;;;10.50;99.90;;;;;;10378732;28;20238;-81
2022/01/01 17:05:08;;;;;;;7.57;6.70;;;10.40;99.90;;;;;;10370845;28;20244;-81
2022/01/01 17:10:15;;;;;;;7.43;6.73;;;10.40;99.90;;;;;;10381312;28;20698;-81
2022/01/01 17:15:18;;;;;;;7.50;6.80;;;10.40;99.90;;;;;;10375795;28;20304;-82
2022/01/01 17:20:26;;;;;;;9.07;7.63;;;10.30;99.90;;;;;;10383457;28;20218;-82
2022/01/01 17:25:32;;;;;;;10.30;9.20;;;10.20;99.90;;;;;;10369815;28;20651;-81
2022/01/01 17:30:34;;;;;;;8.33;7.47;;;10.20;99.90;;;;;;10382211;28;20215;-82
2022/01/01 17:36:04;;;;;;;7.93;6.93;;;10.20;99.90;;;;;;10380681;28;20206;-80
2022/01/01 17:41:05;;;;;;;6.97;6.37;;;10.10;99.90;;;;;;10379662;28;20772;-82
2022/01/01 17:46:08;;;;;;;7.80;5.90;;;10.00;99.90;;;;;;10384104;28;20579;-80
2022/01/01 17:51:15;;;;;;;7.97;7.27;;;10.00;99.90;;;;;;10362626;28;20320;-81
2022/01/01 17:56:20;;;;;;;8.43;7.67;;;10.00;99.90;;;;;;10379751;28;20241;-81
2022/01/01 18:01:22;;;;;;;20.87;18.70;;;10.00;99.90;;;;;;10373614;28;20218;-81
2022/01/01 18:06:28;;;;;;;19.17;17.37;;;10.00;99.90;;;;;;10378029;28;20245;-80
2022/01/01 18:11:33;;;;;;;13.20;11.80;;;10.00;99.90;;;;;;10365322;28;20690;-82
2022/01/01 18:16:38;;;;;;;7.67;6.93;;;10.10;99.90;;;;;;10379136;28;20218;-82
2022/01/01 18:21:44;;;;;;;6.03;5.43;;;10.00;99.90;;;;;;10379321;28;20230;-80
2022/01/01 18:26:55;;;;;;;6.73;5.90;;;9.90;99.90;;;;;;10370392;28;20199;-78
2022/01/01 18:31:58;;;;;;;6.47;5.87;;;9.90;99.90;;;;;;10378085;28;20218;-79
2022/01/01 18:37:03;;;;;;;6.60;6.10;;;9.90;99.90;;;;;;10366142;28;20215;-79
2022/01/01 18:42:06;;;;;;;6.10;5.57;;;9.80;99.90;;;;;;10374355;28;20280;-78
2022/01/01 18:47:09;;;;;;;7.30;6.80;;;9.80;99.90;;;;;;10359216;28;20203;-78
2022/01/01 18:52:18;;;;;;;7.30;6.70;;;9.90;99.90;;;;;;10355446;28;20659;-82
2022/01/01 18:57:26;;;;;;;6.13;5.63;;;9.90;99.90;;;;;;10360038;28;20226;-81
2022/01/01 19:02:29;;;;;;;5.60;5.10;;;9.90;99.90;;;;;;10367304;28;20404;-77
2022/01/01 19:07:34;;;;;;;5.43;5.03;;;10.00;99.90;;;;;;10361750;28;20718;-79
2022/01/01 19:12:47;;;;;;;6.70;5.63;;;10.00;99.90;;;;;;10362617;28;20571;-78
2022/01/01 19:17:51;;;;;;;7.20;5.80;;;10.10;99.90;;;;;;10351400;28;20233;-79
2022/01/01 19:22:57;;;;;;;9.73;8.73;;;10.00;99.90;;;;;;10322604;28;20247;-80
2022/01/01 19:28:01;;;;;;;6.87;6.37;;;9.90;99.90;;;;;;10325116;28;20571;-77
2022/01/01 19:33:06;;;;;;;9.67;8.70;;;9.80;99.90;;;;;;10346399;28;20659;-78
2022/01/01 19:38:10;;;;;;;8.90;8.00;;;9.80;99.90;;;;;;10347058;28;20231;-78
2022/01/01 19:43:20;;;;;;;9.10;8.20;;;9.70;99.90;;;;;;10350817;28;20694;-80
2022/01/01 19:48:26;;;;;;;10.57;7.90;;;9.70;99.90;;;;;;10355106;28;20194;-77
2022/01/01 19:53:30;;;;;;;9.00;8.20;;;9.70;99.90;;;;;;10354946;28;20744;-80
2022/01/01 19:58:32;;;;;;;7.77;7.00;;;9.70;99.90;;;;;;10343487;28;20242;-77
2022/01/01 20:03:34;;;;;;;9.53;8.43;;;9.80;99.90;;;;;;10371343;28;20462;-80
2022/01/01 20:08:38;;;;;;;11.10;9.90;;;9.80;99.90;;;;;;10357532;28;20257;-79
2022/01/01 20:13:40;;;;;;;10.33;9.27;;;9.70;99.90;;;;;;10367120;28;20282;-79
2022/01/01 20:18:43;;;;;;;11.43;10.10;;;9.70;99.90;;;;;;10373227;28;20226;-78
2022/01/01 20:23:46;;;;;;;9.97;8.97;;;9.60;99.90;;;;;;10371701;28;20717;-80
2022/01/01 20:28:48;;;;;;;12.43;11.13;;;9.60;99.90;;;;;;10372815;28;20285;-80
2022/01/01 20:33:50;;;;;;;14.43;11.67;;;9.50;99.90;;;;;;10366469;28;20225;-78
2022/01/01 20:38:54;;;;;;;15.10;12.40;;;9.50;99.90;;;;;;10350564;28;20294;-81
2022/01/01 20:43:56;;;;;;;13.60;12.07;;;9.50;99.90;;;;;;10370591;28;20228;-80
2022/01/01 20:48:58;;;;;;;15.77;14.13;;;9.50;99.90;;;;;;10374228;28;20263;-81
2022/01/01 20:54:02;;;;;;;16.80;12.60;;;9.40;99.90;;;;;;10363528;28;20234;-81
2022/01/01 20:59:04;;;;;;;18.30;14.80;;;9.40;99.90;;;;;;10375493;28;20753;-78
2022/01/01 21:04:07;;;;;;;21.50;16.00;;;9.40;99.90;;;;;;10374251;28;20325;-78
2022/01/01 21:09:10;;;;;;;15.93;13.90;;;9.50;99.90;;;;;;10374044;28;20203;-78
2022/01/01 21:14:16;;;;;;;12.97;11.70;;;9.50;99.90;;;;;;10377309;28;20718;-77
2022/01/01 21:19:19;;;;;;;12.53;11.20;;;9.50;99.90;;;;;;10380217;28;20265;-78
2022/01/01 21:24:23;;;;;;;13.50;12.17;;;9.50;99.90;;;;;;10367077;28;20626;-79
2022/01/01 21:29:25;;;;;;;15.03;12.50;;;9.40;99.90;;;;;;10379305;28;20198;-77
2022/01/01 21:34:27;;;;;;;20.33;11.80;;;9.30;99.90;;;;;;10380873;28;20226;-78
2022/01/01 21:39:31;;;;;;;13.30;11.90;;;9.30;99.90;;;;;;10372618;28;20314;-79
2022/01/01 21:44:33;;;;;;;13.87;12.33;;;9.30;99.90;;;;;;10378219;28;20218;-78
2022/01/01 21:49:36;;;;;;;12.00;10.80;;;9.30;99.90;;;;;;10360664;28;20195;-78
2022/01/01 21:54:40;;;;;;;12.87;11.47;;;9.20;99.90;;;;;;10371655;28;20279;-77
2022/01/01 21:59:42;;;;;;;11.67;10.47;;;9.20;99.90;;;;;;10378285;28;20198;-79
2022/01/01 22:04:44;;;;;;;13.20;10.63;;;9.20;99.90;;;;;;10374261;28;20303;-80
2022/01/01 22:09:47;;;;;;;11.93;10.20;;;9.20;99.90;;;;;;10378195;28;20201;-78
2022/01/01 22:14:49;;;;;;;10.53;9.53;;;9.10;99.90;;;;;;10376936;28;20226;-78
2022/01/01 22:19:52;;;;;;;14.87;10.00;;;9.10;99.90;;;;;;10360779;28;20204;-78
2022/01/01 22:24:56;;;;;;;11.17;9.60;;;9.10;99.90;;;;;;10374042;28;20199;-78
2022/01/01 22:29:58;;;;;;;9.83;8.93;;;9.10;99.90;;;;;;10370434;28;20237;-78
2022/01/01 22:35:01;;;;;;;11.60;8.87;;;9.10;99.90;;;;;;10378002;28;20813;-78
2022/01/01 22:40:05;;;;;;;9.67;8.67;;;9.00;99.90;;;;;;10376939;28;20211;-78
2022/01/01 22:45:08;;;;;;;10.10;9.10;;;9.00;99.90;;;;;;10376969;28;20207;-79
2022/01/01 22:50:11;;;;;;;9.60;8.70;;;9.10;99.90;;;;;;10374339;28;20576;-79
2022/01/01 22:55:14;;;;;;;9.37;8.47;;;9.00;99.90;;;;;;10375307;28;20221;-79
2022/01/01 23:00:58;;;;;;;11.47;8.07;;;9.00;99.90;;;;;;10369387;28;20227;-80
2022/01/01 23:06:01;;;;;;;9.13;8.30;;;9.00;99.90;;;;;;10347387;28;20194;-79
2022/01/01 23:11:05;;;;;;;9.03;7.80;;;8.90;99.90;;;;;;10367923;28;20227;-79
2022/01/01 23:16:11;;;;;;;8.63;7.80;;;8.80;99.90;;;;;;10376336;28;20218;-79
2022/01/01 23:21:15;;;;;;;8.70;7.90;;;8.80;99.90;;;;;;10366195;28;20227;-80
2022/01/01 23:26:26;;;;;;;9.03;7.27;;;8.80;99.90;;;;;;10354718;28;20828;-78
2022/01/01 23:31:30;;;;;;;7.47;6.77;;;8.70;99.90;;;;;;10375534;28;20729;-78
2022/01/01 23:36:34;;;;;;;7.73;7.07;;;8.70;99.90;;;;;;10366810;28;20250;-80
2022/01/01 23:41:38;;;;;;;7.70;6.90;;;8.70;99.90;;;;;;10375406;28;20313;-79
2022/01/01 23:46:47;;;;;;;7.57;6.87;;;8.60;99.90;;;;;;10377002;28;20217;-80
2022/01/01 23:51:57;;;;;;;7.73;6.93;;;8.60;99.90;;;;;;10348096;28;20234;-80
2022/01/01 23:57:05;;;;;;;6.67;6.10;;;8.60;99.90;;;;;;10354520;28;20233;-78
